createdAt,value
2018-11-21T00:00:25.114Z,99984.73
2018-11-21T00:02:54.457Z,99985.80
2018-11-21T00:05:23.845Z,99982.48
2018-11-21T00:07:53.236Z,99979.78
2018-11-21T00:10:22.590Z,99995.73
2018-11-21T00:12:53.762Z,100004.16
2018-11-21T00:15:23.156Z,99987.97
2018-11-21T00:17:52.505Z,99985.06
2018-11-21T00:20:21.894Z,99988.28
2018-11-21T00:22:51.287Z,100000.75
2018-11-21T00:25:20.677Z,99996.27
2018-11-21T00:27:50.023Z,99990.05
2018-11-21T00:30:19.371Z,99973.23
2018-11-21T00:32:48.772Z,99972.50
2018-11-21T00:35:18.113Z,99975.11
2018-11-21T00:37:47.501Z,99969.09
2018-11-21T00:40:16.861Z,99970.45
2018-11-21T00:42:46.993Z,99971.18
2018-11-21T00:45:15.635Z,99959.16
2018-11-21T00:47:45.024Z,99959.88
2018-11-21T00:50:14.629Z,99966.02
2018-11-21T00:52:44.019Z,99956.77
2018-11-21T00:55:13.362Z,99946.68
2018-11-21T00:57:42.767Z,99947.73
2018-11-21T01:00:12.814Z,99942.63
2018-11-21T01:02:42.209Z,99943.36
2018-11-21T01:05:11.552Z,99932.57
2018-11-21T01:07:40.942Z,99932.39
2018-11-21T01:10:10.332Z,99925.15
2018-11-21T01:12:39.701Z,99923.39
2018-11-21T01:15:09.093Z,99924.03
2018-11-21T01:17:38.438Z,99922.97
2018-11-21T01:20:08.574Z,99919.05
2018-11-21T01:22:37.932Z,99909.81
2018-11-21T01:25:07.961Z,99912.91
2018-11-21T01:27:37.331Z,99902.45
2018-11-21T01:30:07.448Z,99887.29
2018-11-21T01:32:36.937Z,99876.20
2018-11-21T01:35:07.183Z,99775.73
2018-11-21T01:37:36.566Z,99907.25
2018-11-21T01:40:06.993Z,99903.30
2018-11-21T01:42:36.385Z,99886.29
2018-11-21T01:45:05.821Z,99880.37
2018-11-21T01:47:35.203Z,99893.24
2018-11-21T01:50:04.589Z,99755.55
2018-11-21T01:52:33.947Z,99870.84
2018-11-21T01:55:03.372Z,99871.57
2018-11-21T01:57:32.761Z,99870.87
2018-11-21T02:00:02.143Z,99864.74
2018-11-21T02:02:31.521Z,99876.64
2018-11-21T02:05:00.903Z,99857.56
2018-11-21T02:07:30.269Z,99845.54
2018-11-21T02:09:59.701Z,99831.32
2018-11-21T02:12:29.055Z,99842.44
2018-11-21T02:14:58.400Z,99850.76
2018-11-21T02:17:27.789Z,99841.70
2018-11-21T02:19:57.134Z,99834.87
2018-11-21T02:22:26.530Z,99837.98
2018-11-21T02:24:55.927Z,99845.54
2018-11-21T02:27:25.269Z,99850.73
2018-11-21T02:29:55.633Z,99842.94
2018-11-21T02:32:28.895Z,99845.95
2018-11-21T02:34:58.234Z,99855.30
2018-11-21T02:37:27.621Z,99856.45
2018-11-21T02:39:57.017Z,99855.19
2018-11-21T02:42:26.405Z,99852.52
2018-11-21T02:44:55.795Z,99853.25
2018-11-21T02:47:25.137Z,99849.31
2018-11-21T02:49:54.536Z,99851.16
2018-11-21T02:52:23.880Z,99855.30
2018-11-21T02:54:53.269Z,99844.02
2018-11-21T02:57:30.034Z,99839.23
2018-11-21T03:00:07.823Z,99836.42
2018-11-21T03:02:37.212Z,99827.28
2018-11-21T03:05:06.835Z,99816.37
2018-11-21T03:07:36.230Z,99809.22
2018-11-21T03:10:06.603Z,99803.62
2018-11-21T03:12:36.004Z,99798.95
2018-11-21T03:15:05.596Z,99791.92
2018-11-21T03:17:34.942Z,99795.47
2018-11-21T03:20:04.293Z,99790.98
2018-11-21T03:22:33.649Z,99790.70
2018-11-21T03:25:03.000Z,99785.72
2018-11-21T03:27:32.375Z,99787.09
2018-11-21T03:30:01.780Z,99793.31
2018-11-21T03:32:31.139Z,99781.88
2018-11-21T03:35:00.490Z,99781.88
2018-11-21T03:37:29.874Z,99767.89
2018-11-21T03:39:59.260Z,99768.19
2018-11-21T03:42:28.646Z,99773.66
2018-11-21T03:44:58.150Z,99772.64
2018-11-21T03:47:27.497Z,99771.38
2018-11-21T03:49:56.842Z,99767.53
2018-11-21T03:52:26.234Z,99759.19
2018-11-21T03:54:55.585Z,99750.98
2018-11-21T03:57:24.943Z,99752.05
2018-11-21T03:59:54.291Z,99744.13
2018-11-21T04:02:23.640Z,99732.60
2018-11-21T04:04:53.029Z,99727.08
2018-11-21T04:07:22.448Z,99726.11
2018-11-21T04:09:51.800Z,99725.08
2018-11-21T04:12:21.144Z,99737.09
2018-11-21T04:14:50.575Z,99732.60
2018-11-21T04:17:19.920Z,99735.70
2018-11-21T04:19:49.314Z,99724.18
2018-11-21T04:22:18.703Z,99615.67
2018-11-21T04:24:48.104Z,99722.91
2018-11-21T04:27:17.449Z,99722.70
2018-11-21T04:29:46.799Z,99717.84
2018-11-21T04:32:16.177Z,99714.33
2018-11-21T04:34:45.571Z,99708.19
2018-11-21T04:37:14.916Z,99709.02
2018-11-21T04:39:44.304Z,99702.80
2018-11-21T04:42:13.645Z,99698.75
2018-11-21T04:44:43.039Z,99696.80
2018-11-21T04:47:12.401Z,99709.83
2018-11-21T04:49:41.860Z,99706.08
2018-11-21T04:52:11.210Z,99695.89
2018-11-21T04:54:40.600Z,99691.11
2018-11-21T04:57:09.945Z,99691.35
2018-11-21T04:59:39.336Z,99688.41
2018-11-21T05:02:08.737Z,99681.47
2018-11-21T05:04:38.089Z,99673.42
2018-11-21T05:07:07.438Z,99671.02
2018-11-21T05:09:36.851Z,99671.02
2018-11-21T05:12:06.247Z,99672.97
2018-11-21T05:14:35.639Z,99674.84
2018-11-21T05:17:05.198Z,99674.84
2018-11-21T05:19:34.541Z,99666.55
2018-11-21T05:22:03.891Z,99667.97
2018-11-21T05:24:33.283Z,99667.84
2018-11-21T05:27:02.629Z,99669.52
2018-11-21T05:29:32.021Z,99665.55
2018-11-21T05:32:01.405Z,99659.09
2018-11-21T05:34:30.825Z,99667.50
2018-11-21T05:37:00.165Z,99658.34
2018-11-21T05:39:29.509Z,99657.61
2018-11-21T05:41:58.901Z,99643.83
2018-11-21T05:44:31.438Z,99647.27
2018-11-21T05:46:57.745Z,99662.39
2018-11-21T05:49:27.140Z,99659.41
2018-11-21T05:51:56.500Z,99648.63
2018-11-21T05:54:26.026Z,99647.56
2018-11-21T05:56:55.434Z,99648.63
2018-11-21T05:59:24.790Z,99639.47
2018-11-21T06:01:54.167Z,99640.60
2018-11-21T06:04:23.565Z,99641.74
2018-11-21T06:06:52.965Z,99644.13
2018-11-21T06:09:22.354Z,99641.00
2018-11-21T06:11:51.806Z,99634.01
2018-11-21T06:14:21.205Z,99627.27
2018-11-21T06:16:50.548Z,99624.14
2018-11-21T06:19:19.966Z,99643.11
2018-11-21T06:21:49.368Z,99626.52
2018-11-21T06:24:18.757Z,99629.58
2018-11-21T06:27:06.227Z,99636.33
2018-11-21T06:29:35.638Z,99632.53
2018-11-21T06:32:05.062Z,99635.65
2018-11-21T06:34:34.418Z,99627.55
2018-11-21T06:37:03.922Z,99623.08
2018-11-21T06:39:33.289Z,99623.33
2018-11-21T06:42:02.790Z,99618.81
2018-11-21T06:44:32.156Z,99623.14
2018-11-21T06:47:01.529Z,99500.05
2018-11-21T06:49:30.930Z,99618.88
2018-11-21T06:52:00.284Z,99620.02
2018-11-21T06:54:29.705Z,99610.86
2018-11-21T06:57:00.097Z,99609.36
2018-11-21T06:59:29.447Z,99612.67
2018-11-21T07:01:58.864Z,99617.83
2018-11-21T07:04:28.266Z,99617.19
2018-11-21T07:06:57.648Z,99614.30
2018-11-21T07:09:27.066Z,99624.03
2018-11-21T07:11:56.607Z,99623.90
2018-11-21T07:14:26.018Z,99616.84
2018-11-21T07:16:55.439Z,99606.36
2018-11-21T07:19:24.904Z,99614.60
2018-11-21T07:21:54.273Z,99604.94
2018-11-21T07:24:26.446Z,99604.05
2018-11-21T07:26:53.334Z,99601.36
2018-11-21T07:29:22.710Z,99598.88
2018-11-21T07:31:52.106Z,99600.44
2018-11-21T07:34:21.671Z,99489.16
2018-11-21T07:36:51.996Z,99602.24
2018-11-21T07:39:21.465Z,99607.05
2018-11-21T07:41:51.187Z,99604.20
2018-11-21T07:44:20.578Z,99603.02
2018-11-21T07:46:49.978Z,99602.56
2018-11-21T07:49:19.392Z,99608.34
2018-11-21T07:51:48.796Z,99605.44
2018-11-21T07:54:18.187Z,99602.80
2018-11-21T07:57:26.136Z,99606.04
2018-11-21T08:00:41.169Z,99604.44
2018-11-21T08:03:10.640Z,99598.16
2018-11-21T08:05:44.393Z,99596.87
2018-11-21T08:08:32.450Z,99591.47
2018-11-21T08:11:26.997Z,99590.13
2018-11-21T08:14:13.809Z,99587.28
2018-11-21T08:17:04.840Z,99588.70
2018-11-21T08:20:02.322Z,99581.87
2018-11-21T08:22:46.919Z,99584.75
2018-11-21T08:25:33.475Z,99583.25
2018-11-21T08:28:20.234Z,99571.53
2018-11-21T08:30:50.521Z,99534.62
2018-11-21T08:33:20.253Z,99572.13
2018-11-21T08:35:49.678Z,99568.24
2018-11-21T08:38:19.077Z,99565.36
2018-11-21T08:40:48.557Z,99567.05
2018-11-21T08:43:17.954Z,99566.89
2018-11-21T08:45:47.432Z,99569.66
2018-11-21T08:48:17.712Z,99566.36
2018-11-21T08:50:47.063Z,99571.08
2018-11-21T08:53:16.471Z,99571.20
2018-11-21T08:55:45.833Z,99583.90
2018-11-21T08:58:15.233Z,99591.03
2018-11-21T09:00:44.989Z,99575.58
2018-11-21T09:03:14.344Z,99570.33
2018-11-21T09:05:43.740Z,99444.66
2018-11-21T09:08:13.093Z,99553.81
2018-11-21T09:10:42.506Z,99548.25
2018-11-21T09:13:11.943Z,99543.77
2018-11-21T09:15:41.340Z,99545.17
2018-11-21T09:18:10.741Z,99539.11
2018-11-21T09:20:40.113Z,99531.89
2018-11-21T09:23:09.537Z,99530.16
2018-11-21T09:25:38.894Z,99522.75
2018-11-21T09:28:08.258Z,99527.84
2018-11-21T09:30:37.657Z,99524.53
2018-11-21T09:33:07.102Z,99528.37
2018-11-21T09:35:36.517Z,99512.98
2018-11-21T09:38:05.878Z,99520.70
2018-11-21T09:40:35.299Z,99514.77
2018-11-21T09:43:04.656Z,99510.44
2018-11-21T09:45:34.076Z,99514.48
2018-11-21T09:48:03.518Z,99499.03
2018-11-21T09:50:33.767Z,99498.12
2018-11-21T09:53:03.197Z,99487.47
2018-11-21T09:55:32.582Z,99486.88
2018-11-21T09:58:01.933Z,99494.38
2018-11-21T10:01:07.473Z,99497.84
2018-11-21T10:03:38.249Z,99497.24
2018-11-21T10:06:13.454Z,99505.81
2018-11-21T10:11:57.181Z,99505.97
2018-11-21T10:14:26.679Z,99473.89
2018-11-21T10:16:56.044Z,99494.34
2018-11-21T10:19:25.623Z,99334.66
2018-11-21T10:21:54.985Z,99494.48
2018-11-21T10:24:24.396Z,99485.91
2018-11-21T10:26:53.759Z,99481.03
2018-11-21T10:29:23.161Z,99474.66
2018-11-21T10:31:52.613Z,99471.95
2018-11-21T10:34:22.050Z,99476.66
2018-11-21T10:36:51.412Z,99463.28
2018-11-21T10:39:20.824Z,99457.31
2018-11-21T10:41:50.179Z,99447.71
2018-11-21T10:44:19.533Z,99445.59
2018-11-21T10:46:48.989Z,99442.16
2018-11-21T10:49:18.356Z,99440.20
2018-11-21T10:51:47.747Z,99446.08
2018-11-21T10:54:17.108Z,99444.42
2018-11-21T10:56:46.883Z,99447.81
2018-11-21T10:59:16.296Z,99454.24
2018-11-21T11:02:05.458Z,99450.41
2018-11-21T11:04:41.595Z,99456.25
2018-11-21T11:07:28.333Z,99445.16
2018-11-21T11:10:15.055Z,99447.55
2018-11-21T11:13:12.367Z,99440.64
2018-11-21T11:15:56.306Z,99444.03
2018-11-21T11:18:44.762Z,99443.34
2018-11-21T11:21:44.936Z,99443.33
2018-11-21T11:24:41.715Z,99441.81
2018-11-21T11:27:39.081Z,99437.00
2018-11-21T11:30:30.159Z,99430.51
2018-11-21T11:33:17.234Z,99422.68
2018-11-21T11:36:04.109Z,99426.62
2018-11-21T11:39:01.430Z,99426.17
2018-11-21T11:41:55.716Z,99427.86
2018-11-21T11:44:41.639Z,99418.82
2018-11-21T11:47:28.795Z,99426.94
2018-11-21T11:50:32.155Z,99429.19
2018-11-21T11:53:26.253Z,99422.88
2018-11-21T11:56:13.292Z,99416.59
2018-11-21T11:59:04.398Z,99419.06
2018-11-21T12:01:52.830Z,99412.48
2018-11-21T12:04:41.452Z,99414.25
2018-11-21T12:07:23.260Z,99406.10
2018-11-21T12:10:10.163Z,99409.84
2018-11-21T12:12:57.197Z,99403.73
2018-11-21T12:15:51.590Z,99398.67
2018-11-21T12:18:38.554Z,99404.55
2018-11-21T12:21:32.696Z,99408.38
2018-11-21T12:24:23.734Z,99411.89
2018-11-21T12:27:18.130Z,99407.13
2018-11-21T12:30:09.666Z,99406.72
2018-11-21T12:33:13.425Z,99407.61
2018-11-21T12:36:01.866Z,99411.48
2018-11-21T12:38:48.569Z,99413.13
2018-11-21T12:41:42.917Z,99407.84
2018-11-21T12:44:28.936Z,99413.34
2018-11-21T12:47:17.473Z,99409.29
2018-11-21T12:50:24.006Z,99412.05
2018-11-21T12:53:11.116Z,99417.53
2018-11-21T12:56:05.700Z,99417.81
2018-11-21T12:59:04.792Z,99420.83
2018-11-21T13:01:42.655Z,99416.86
2018-11-21T13:04:29.548Z,99308.66
2018-11-21T13:07:20.791Z,99293.25
2018-11-21T13:10:14.827Z,99424.58
2018-11-21T13:13:01.478Z,99419.38
2018-11-21T13:15:43.650Z,99426.56
2018-11-21T13:18:40.165Z,99429.66
2018-11-21T13:21:27.430Z,99435.34
2018-11-21T13:24:24.781Z,99433.35
2018-11-21T13:27:25.386Z,99432.05
2018-11-21T13:30:25.796Z,99434.88
2018-11-21T13:33:12.463Z,99433.94
2018-11-21T13:36:00.954Z,99440.58
2018-11-21T13:38:52.351Z,99428.70
2018-11-21T13:41:40.843Z,99441.47
2018-11-21T13:44:35.292Z,99435.66
2018-11-21T13:47:22.140Z,99429.76
2018-11-21T13:50:09.344Z,99437.83
2018-11-21T13:53:13.097Z,99433.00
2018-11-21T13:55:42.851Z,99435.48
2018-11-21T13:58:12.325Z,99436.48
2018-11-21T14:00:41.753Z,99440.63
2018-11-21T14:03:11.574Z,99450.97
2018-11-21T14:05:41.057Z,99446.35
2018-11-21T14:08:10.508Z,99455.37
2018-11-21T14:10:39.992Z,99452.81
2018-11-21T14:13:09.472Z,99455.75
2018-11-21T14:15:38.987Z,99446.63
2018-11-21T14:18:08.446Z,99450.69
2018-11-21T14:20:37.913Z,99449.61
2018-11-21T14:23:07.409Z,99448.47
2018-11-21T14:25:36.829Z,99447.53
2018-11-21T14:28:06.262Z,99444.36
2018-11-21T14:30:35.752Z,99453.11
2018-11-21T14:33:05.614Z,99452.07
2018-11-21T14:35:35.100Z,99455.87
2018-11-21T14:38:04.536Z,99456.36
2018-11-21T14:40:34.012Z,99456.72
2018-11-21T14:43:03.461Z,99448.92
2018-11-21T14:45:33.027Z,99455.69
2018-11-21T14:48:02.444Z,99458.16
2018-11-21T14:50:39.234Z,99457.04
2018-11-21T14:53:05.382Z,99459.56
2018-11-21T14:55:34.871Z,99461.10
2018-11-21T14:58:04.293Z,99460.05
2018-11-21T15:00:33.744Z,99461.28
2018-11-21T15:03:03.220Z,99462.99
2018-11-21T15:05:32.645Z,99469.17
2018-11-21T15:08:02.129Z,99468.72
2018-11-21T15:10:31.623Z,99469.84
2018-11-21T15:13:01.200Z,99475.08
2018-11-21T15:15:30.749Z,99484.88
2018-11-21T15:18:00.192Z,99476.66
2018-11-21T15:20:29.684Z,99478.96
2018-11-21T15:22:59.128Z,99482.84
2018-11-21T15:25:28.557Z,99479.31
2018-11-21T15:27:58.087Z,99482.20
2018-11-21T15:30:29.006Z,99487.48
2018-11-21T15:32:58.993Z,99488.44
2018-11-21T15:35:28.438Z,99488.44
2018-11-21T15:37:57.930Z,99496.06
2018-11-21T15:40:27.680Z,99493.41
2018-11-21T15:42:57.222Z,99495.88
2018-11-21T15:45:27.170Z,99497.77
2018-11-21T15:47:58.314Z,99504.31
2018-11-21T15:50:28.356Z,99502.66
2018-11-21T15:52:57.793Z,99507.07
2018-11-21T15:55:27.232Z,99515.45
2018-11-21T15:57:56.709Z,99513.70
2018-11-21T16:00:27.796Z,99519.61
2018-11-21T16:02:59.397Z,99520.20
2018-11-21T16:05:28.865Z,99512.66
2018-11-21T16:08:03.279Z,99527.38
2018-11-21T16:10:38.352Z,99521.50
2018-11-21T16:13:08.167Z,99529.09
2018-11-21T16:15:46.053Z,99531.84
2018-11-21T16:18:16.125Z,99534.19
2018-11-21T16:20:45.559Z,99538.73
2018-11-21T16:23:15.040Z,99543.84
2018-11-21T16:25:44.456Z,99541.39
2018-11-21T16:28:13.883Z,99545.05
2018-11-21T16:30:43.356Z,99546.39
2018-11-21T16:33:12.836Z,99551.50
2018-11-21T16:35:42.247Z,99555.78
2018-11-21T16:38:11.672Z,99553.08
2018-11-21T16:40:41.099Z,99551.10
2018-11-21T16:43:10.629Z,99544.06
2018-11-21T16:45:42.486Z,99552.72
2018-11-21T16:48:11.940Z,99554.30
2018-11-21T16:50:41.491Z,99555.59
2018-11-21T16:53:10.954Z,99559.52
2018-11-21T16:55:40.378Z,99559.23
2018-11-21T16:58:09.840Z,99563.66
2018-11-21T17:00:39.314Z,99572.00
2018-11-21T17:03:08.741Z,99579.13
2018-11-21T17:05:38.209Z,99577.30
2018-11-21T17:08:07.689Z,99589.95
2018-11-21T17:10:37.162Z,99593.70
2018-11-21T17:13:06.965Z,99596.24
2018-11-21T17:15:36.787Z,99603.01
2018-11-21T17:18:06.459Z,99601.43
2018-11-21T17:20:37.983Z,99605.86
2018-11-21T17:23:07.420Z,99611.86
2018-11-21T17:25:38.224Z,99617.59
2018-11-21T17:28:07.711Z,99620.13
2018-11-21T17:30:37.139Z,99614.22
2018-11-21T17:33:06.566Z,99619.47
2018-11-21T17:35:36.045Z,99619.41
2018-11-21T17:38:05.484Z,99617.24
2018-11-21T17:40:36.845Z,99618.65
2018-11-21T17:43:06.701Z,99622.83
2018-11-21T17:45:36.182Z,99626.89
2018-11-21T17:48:05.748Z,99619.16
2018-11-21T17:50:35.234Z,99620.29
2018-11-21T17:53:05.844Z,99628.69
2018-11-21T17:55:36.341Z,99632.53
2018-11-21T17:58:05.922Z,99630.41
2018-11-21T18:00:35.413Z,99631.82
2018-11-21T18:03:05.410Z,99641.66
2018-11-21T18:05:36.515Z,99640.36
2018-11-21T18:08:05.998Z,99642.25
2018-11-21T18:10:37.017Z,99645.44
2018-11-21T18:13:06.903Z,99650.32
2018-11-21T18:15:36.341Z,99652.72
2018-11-21T18:18:06.256Z,99649.19
2018-11-21T18:20:35.686Z,99654.38
2018-11-21T18:23:05.249Z,99658.44
2018-11-21T18:25:36.459Z,99667.16
2018-11-21T18:28:06.070Z,99661.26
2018-11-21T18:30:35.497Z,99665.63
2018-11-21T18:33:05.182Z,99671.09
2018-11-21T18:35:35.694Z,99675.70
2018-11-21T18:38:04.066Z,99679.45
2018-11-21T18:40:33.667Z,99683.51
2018-11-21T18:43:03.161Z,99680.21
2018-11-21T18:45:35.648Z,99687.23
2018-11-21T18:48:05.162Z,99691.20
2018-11-21T18:50:34.773Z,99696.79
2018-11-21T18:53:05.440Z,99689.20
2018-11-21T18:55:46.267Z,99694.73
2018-11-21T18:58:42.636Z,99705.24
2018-11-21T19:01:12.088Z,99712.32
2018-11-21T19:03:41.502Z,99711.50
2018-11-21T19:06:10.996Z,99712.55
2018-11-21T19:08:40.437Z,99714.72
2018-11-21T19:11:09.891Z,99719.69
2018-11-21T19:13:39.453Z,99723.80
2018-11-21T19:16:08.947Z,99738.75
2018-11-21T19:18:38.522Z,99737.98
2018-11-21T19:21:08.045Z,99737.98
2018-11-21T19:23:37.477Z,99748.70
2018-11-21T19:26:06.910Z,99752.00
2018-11-21T19:28:36.399Z,99749.95
2018-11-21T19:31:06.287Z,99749.19
2018-11-21T19:33:35.768Z,99757.48
2018-11-21T19:36:05.409Z,99754.48
2018-11-21T19:38:34.887Z,99760.45
2018-11-21T19:41:04.353Z,99765.70
2018-11-21T19:43:33.792Z,99766.27
2018-11-21T19:46:03.341Z,99772.84
2018-11-21T19:48:32.824Z,99775.27
2018-11-21T19:51:02.315Z,99778.17
2018-11-21T19:53:31.802Z,99772.63
2018-11-21T19:56:01.500Z,99776.16
2018-11-21T19:58:30.771Z,99776.21
2018-11-21T20:01:00.214Z,99786.06
2018-11-21T20:03:29.689Z,99786.97
2018-11-21T20:05:59.168Z,99790.28
2018-11-21T20:08:28.658Z,99794.34
2018-11-21T20:10:58.090Z,99800.73
2018-11-21T20:13:27.530Z,99799.59
2018-11-21T20:15:57.007Z,99799.70
2018-11-21T20:18:26.626Z,99801.93
2018-11-21T20:20:56.108Z,99805.23
2018-11-21T20:23:25.588Z,99806.36
2018-11-21T20:25:55.075Z,99812.59
2018-11-21T20:28:24.511Z,99811.56
2018-11-21T20:30:53.987Z,99813.19
2018-11-21T20:33:23.424Z,99815.02
2018-11-21T20:35:52.906Z,99817.41
2018-11-21T20:38:22.330Z,99819.39
2018-11-21T20:40:51.813Z,99820.89
2018-11-21T20:43:21.289Z,99823.23
2018-11-21T20:45:50.705Z,99826.22
2018-11-21T20:48:20.134Z,99829.48
2018-11-21T20:50:49.589Z,99835.19
2018-11-21T20:53:19.054Z,99836.44
2018-11-21T20:55:48.478Z,99834.12
2018-11-21T20:58:17.936Z,99839.77
2018-11-21T21:00:47.354Z,99836.47
2018-11-21T21:03:16.840Z,99849.77
2018-11-21T21:05:46.241Z,99851.80
2018-11-21T21:08:15.715Z,99852.47
2018-11-21T21:10:46.359Z,99848.61
2018-11-21T21:13:15.785Z,99858.83
2018-11-21T21:15:45.219Z,99864.48
2018-11-21T21:18:14.694Z,99859.91
2018-11-21T21:20:44.111Z,99864.48
2018-11-21T21:23:13.589Z,99869.52
2018-11-21T21:25:42.996Z,99865.09
2018-11-21T21:28:12.422Z,99872.52
2018-11-21T21:30:41.909Z,99877.47
2018-11-21T21:33:11.334Z,99881.39
2018-11-21T21:35:40.759Z,99882.95
2018-11-21T21:38:10.216Z,99880.94
2018-11-21T21:40:39.697Z,99884.84
2018-11-21T21:43:09.109Z,99887.41
2018-11-21T21:45:38.530Z,99888.22
2018-11-21T21:48:07.991Z,99896.86
2018-11-21T21:50:37.426Z,99894.02
2018-11-21T21:53:06.890Z,99896.19
2018-11-21T21:55:36.307Z,99902.06
2018-11-21T21:58:05.763Z,99906.38
2018-11-21T22:00:35.234Z,99903.55
2018-11-21T22:03:04.713Z,99917.95
2018-11-21T22:05:34.527Z,99910.78
2018-11-21T22:08:03.992Z,99914.41
2018-11-21T22:10:33.466Z,99915.02
2018-11-21T22:13:02.943Z,99918.02
2018-11-21T22:15:33.719Z,99914.41
2018-11-21T22:18:04.904Z,99914.63
2018-11-21T22:20:34.385Z,99911.70
2018-11-21T22:23:03.796Z,99910.91
2018-11-21T22:25:33.219Z,99918.41
2018-11-21T22:28:02.685Z,99916.38
2018-11-21T22:30:32.150Z,99913.41
2018-11-21T22:33:01.875Z,99915.50
2018-11-21T22:35:32.999Z,99918.04
2018-11-21T22:38:02.470Z,99919.18
2018-11-21T22:40:31.883Z,99921.75
2018-11-21T22:43:01.357Z,99921.22
2018-11-21T22:45:30.773Z,99920.61
2018-11-21T22:48:00.301Z,99919.42
2018-11-21T22:50:29.728Z,99925.88
2018-11-21T22:52:59.160Z,99925.97
2018-11-21T22:55:28.567Z,99924.94
2018-11-21T22:57:57.998Z,99927.66
2018-11-21T23:00:44.002Z,99919.87
2018-11-21T23:03:14.542Z,99923.19
2018-11-21T23:05:44.012Z,99929.00
2018-11-21T23:08:13.434Z,99937.90
2018-11-21T23:10:42.910Z,99933.77
2018-11-21T23:13:12.326Z,99933.64
2018-11-21T23:15:41.978Z,99936.67
2018-11-21T23:18:11.395Z,99933.07
2018-11-21T23:20:40.865Z,99933.31
2018-11-21T23:23:10.407Z,99941.05
2018-11-21T23:25:39.834Z,99940.03
2018-11-21T23:28:09.307Z,99936.42
2018-11-21T23:30:38.738Z,99937.49
2018-11-21T23:33:08.199Z,99941.99
2018-11-21T23:35:37.610Z,99945.14
2018-11-21T23:38:07.080Z,99937.66
2018-11-21T23:40:36.513Z,99939.13
2018-11-21T23:43:06.078Z,99941.46
2018-11-21T23:45:35.553Z,99943.79
2018-11-21T23:48:04.971Z,99943.97
2018-11-21T23:50:34.424Z,99951.70
2018-11-21T23:53:03.854Z,99952.39
2018-11-21T23:55:33.327Z,99952.51
2018-11-21T23:58:02.822Z,99946.58
